Garner, Iowa
Current Conditions -  °F | °C
As of 3:35 PM on Friday 19 Dec 2014 (Local Time) from KFXY Reporting Station
Haze Haze  
Wind Chill: -4°   Ceiling: 800
Heat Index:   Visibility: 5mi
Dew Point: -2°   Wind: 8mph
Humidity: 87%   Direction: 160°SSE
Pressure: 30.19"   Gusts: NA
Location:  43.1°N, 93.6°W
Report Text: KFXY 192135Z AUTO 16007KT 5SM BR OVC008 00/M02 A3019 RMK AO2
Loading
Personal Weather Stations






























Interactive Weather Map New forecast layout! Learn more

10-Day Weather Forecast

Advertisements
Track Severe Weather on mobile